sensor_id;sensor_type;location;lat;lon;timestamp;temperature;humidity
15844;DHT22;50807;52.436;13.346;2023-05-10T00:00:12;16.30;56.20
15844;DHT22;50807;52.436;13.346;2023-05-10T00:00:43;16.30;56.30
15844;DHT22;50807;52.436;13.346;2023-05-10T00:01:15;16.30;56.30
15844;DHT22;50807;52.436;13.346;2023-05-10T00:01:46;16.30;56.30
15844;DHT22;50807;52.436;13.346;2023-05-10T00:02:16;16.30;56.40
15844;DHT22;50807;52.436;13.346;2023-05-10T00:02:48;16.30;56.40
15844;DHT22;50807;52.436;13.346;2023-05-10T00:03:19;16.30;56.40
15844;DHT22;50807;52.436;13.346;2023-05-10T00:03:50;16.30;56.50
15844;DHT22;50807;52.436;13.346;2023-05-10T00:04:21;16.30;56.50
15844;DHT22;50807;52.436;13.346;2023-05-10T00:04:52;16.30;56.50
15844;DHT22;50807;52.436;13.346;2023-05-10T00:05:23;16.30;56.60
15844;DHT22;50807;52.436;13.346;2023-05-10T00:05:55;16.20;56.50
15844;DHT22;50807;52.436;13.346;2023-05-10T00:06:27;16.20;56.60
15844;DHT22;50807;52.436;13.346;2023-05-10T00:06:58;16.20;56.60
15844;DHT22;50807;52.436;13.346;2023-05-10T00:07:30;16.20;56.60
15844;DHT22;50807;52.436;13.346;2023-05-10T00:08:01;16.20;56.70
15844;DHT22;50807;52.436;13.346;2023-05-10T00:08:32;16.20;56.70
15844;DHT22;50807;52.436;13.346;2023-05-10T00:09:04;16.20;56.80
15844;DHT22;50807;52.436;13.346;2023-05-10T00:09:34;16.20;56.80
15844;DHT22;50807;52.436;13.346;2023-05-10T00:10:06;16.20;56.90
15844;DHT22;50807;52.436;13.346;2023-05-10T00:10:38;16.20;57.00
15844;DHT22;50807;52.436;13.346;2023-05-10T00:11:09;16.20;56.90
15844;DHT22;50807;52.436;13.346;2023-05-10T00:11:39;16.20;57.00
15844;DHT22;50807;52.436;13.346;2023-05-10T00:12:11;16.20;57.00
15844;DHT22;50807;52.436;13.346;2023-05-10T00:12:42;16.20;57.00
15844;DHT22;50807;52.436;13.346;2023-05-10T00:13:13;16.20;57.10
15844;DHT22;50807;52.436;13.346;2023-05-10T00:13:45;16.20;57.10
15844;DHT22;50807;52.436;13.346;2023-05-10T00:14:16;16.20;57.20
15844;DHT22;50807;52.436;13.346;2023-05-10T00:14:46;16.20;57.20
15844;DHT22;50807;52.436;13.346;2023-05-10T00:15:18;16.20;57.20
15844;DHT22;50807;52.436;13.346;2023-05-10T00:15:49;16.20;57.20
15844;DHT22;50807;52.436;13.346;2023-05-10T00:16:20;16.10;57.30
15844;DHT22;50807;52.436;13.346;2023-05-10T00:16:52;16.10;57.30
15844;DHT22;50807;52.436;13.346;2023-05-10T00:17:23;16.10;57.30
15844;DHT22;50807;52.436;13.346;2023-05-10T00:17:54;16.10;57.30
15844;DHT22;50807;52.436;13.346;2023-05-10T00:18:24;16.10;58.00
15844;DHT22;50807;52.436;13.346;2023-05-10T00:18:56;16.10;57.50
15844;DHT22;50807;52.436;13.346;2023-05-10T00:19:27;16.10;57.40
15844;DHT22;50807;52.436;13.346;2023-05-10T00:19:59;16.10;57.50
15844;DHT22;50807;52.436;13.346;2023-05-10T00:20:30;16.10;57.50
15844;DHT22;50807;52.436;13.346;2023-05-10T00:21:01;16.10;57.50
15844;DHT22;50807;52.436;13.346;2023-05-10T00:21:34;16.10;57.50
15844;DHT22;50807;52.436;13.346;2023-05-10T00:22:05;16.10;57.60
15844;DHT22;50807;52.436;13.346;2023-05-10T00:22:36;16.10;57.60
15844;DHT22;50807;52.436;13.346;2023-05-10T00:23:06;16.10;57.60
15844;DHT22;50807;52.436;13.346;2023-05-10T00:23:38;16.10;58.30
15844;DHT22;50807;52.436;13.346;2023-05-10T00:24:09;16.10;57.70
15844;DHT22;50807;52.436;13.346;2023-05-10T00:24:40;16.10;57.80
15844;DHT22;50807;52.436;13.346;2023-05-10T00:25:10;16.10;57.80
15844;DHT22;50807;52.436;13.346;2023-05-10T00:25:42;16.10;57.90
15844;DHT22;50807;52.436;13.346;2023-05-10T00:26:13;16.10;57.90
15844;DHT22;50807;52.436;13.346;2023-05-10T00:26:43;16.10;57.90
15844;DHT22;50807;52.436;13.346;2023-05-10T00:27:15;16.10;58.00
15844;DHT22;50807;52.436;13.346;2023-05-10T00:27:46;16.00;57.90
15844;DHT22;50807;52.436;13.346;2023-05-10T00:28:17;16.00;58.00
15844;DHT22;50807;52.436;13.346;2023-05-10T00:28:47;16.00;58.00
15844;DHT22;50807;52.436;13.346;2023-05-10T00:29:19;16.00;58.00
15844;DHT22;50807;52.436;13.346;2023-05-10T00:29:50;16.00;58.10
15844;DHT22;50807;52.436;13.346;2023-05-10T00:30:21;16.00;58.10
15844;DHT22;50807;52.436;13.346;2023-05-10T00:30:52;16.00;58.10
15844;DHT22;50807;52.436;13.346;2023-05-10T00:31:23;16.00;58.10
15844;DHT22;50807;52.436;13.346;2023-05-10T00:31:54;16.00;58.20
15844;DHT22;50807;52.436;13.346;2023-05-10T00:32:26;16.00;58.20
15844;DHT22;50807;52.436;13.346;2023-05-10T00:32:57;16.00;58.20
15844;DHT22;50807;52.436;13.346;2023-05-10T00:33:28;16.00;58.30
15844;DHT22;50807;52.436;13.346;2023-05-10T00:33:59;16.00;58.30
15844;DHT22;50807;52.436;13.346;2023-05-10T00:34:30;16.00;58.40
15844;DHT22;50807;52.436;13.346;2023-05-10T00:35:01;16.00;58.40
15844;DHT22;50807;52.436;13.346;2023-05-10T00:35:33;15.90;58.40
15844;DHT22;50807;52.436;13.346;2023-05-10T00:36:04;16.00;58.50
15844;DHT22;50807;52.436;13.346;2023-05-10T00:36:39;16.00;58.50
15844;DHT22;50807;52.436;13.346;2023-05-10T00:37:11;16.00;58.50
15844;DHT22;50807;52.436;13.346;2023-05-10T00:37:41;16.00;58.50
15844;DHT22;50807;52.436;13.346;2023-05-10T00:38:12;16.00;58.60
15844;DHT22;50807;52.436;13.346;2023-05-10T00:38:44;16.00;58.60
15844;DHT22;50807;52.436;13.346;2023-05-10T00:39:16;15.90;58.60
15844;DHT22;50807;52.436;13.346;2023-05-10T00:39:46;15.90;58.60
15844;DHT22;50807;52.436;13.346;2023-05-10T00:40:18;15.90;58.70
15844;DHT22;50807;52.436;13.346;2023-05-10T00:40:49;15.90;58.70
15844;DHT22;50807;52.436;13.346;2023-05-10T00:41:20;15.90;58.70
15844;DHT22;50807;52.436;13.346;2023-05-10T00:41:52;15.90;58.70
15844;DHT22;50807;52.436;13.346;2023-05-10T00:42:23;15.90;58.70
15844;DHT22;50807;52.436;13.346;2023-05-10T00:42:53;15.90;58.80
15844;DHT22;50807;52.436;13.346;2023-05-10T00:43:24;15.90;58.80
15844;DHT22;50807;52.436;13.346;2023-05-10T00:43:56;15.90;58.90
15844;DHT22;50807;52.436;13.346;2023-05-10T00:44:27;15.90;58.90
15844;DHT22;50807;52.436;13.346;2023-05-10T00:44:58;15.90;58.90
15844;DHT22;50807;52.436;13.346;2023-05-10T00:45:30;15.90;58.90
15844;DHT22;50807;52.436;13.346;2023-05-10T00:46:01;15.90;59.00
15844;DHT22;50807;52.436;13.346;2023-05-10T00:46:32;15.90;59.00
15844;DHT22;50807;52.436;13.346;2023-05-10T00:47:04;15.90;59.00
15844;DHT22;50807;52.436;13.346;2023-05-10T00:47:35;15.90;59.10
15844;DHT22;50807;52.436;13.346;2023-05-10T00:48:06;15.90;59.10
15844;DHT22;50807;52.436;13.346;2023-05-10T00:48:39;15.90;59.20
15844;DHT22;50807;52.436;13.346;2023-05-10T00:49:10;15.80;59.20
15844;DHT22;50807;52.436;13.346;2023-05-10T00:49:41;15.90;59.20
15844;DHT22;50807;52.436;13.346;2023-05-10T00:50:13;15.90;59.20
15844;DHT22;50807;52.436;13.346;2023-05-10T00:50:45;15.90;59.30
15844;DHT22;50807;52.436;13.346;2023-05-10T00:51:16;15.90;59.30
15844;DHT22;50807;52.436;13.346;2023-05-10T00:51:49;15.80;59.20
15844;DHT22;50807;52.436;13.346;2023-05-10T00:52:21;15.80;59.30
15844;DHT22;50807;52.436;13.346;2023-05-10T00:52:54;15.80;59.30
15844;DHT22;50807;52.436;13.346;2023-05-10T00:53:25;15.80;59.30
15844;DHT22;50807;52.436;13.346;2023-05-10T00:53:58;15.80;59.40
15844;DHT22;50807;52.436;13.346;2023-05-10T00:54:30;15.80;59.40
15844;DHT22;50807;52.436;13.346;2023-05-10T00:55:01;15.80;59.40
15844;DHT22;50807;52.436;13.346;2023-05-10T00:55:33;15.80;59.40
15844;DHT22;50807;52.436;13.346;2023-05-10T00:56:05;15.80;59.50
15844;DHT22;50807;52.436;13.346;2023-05-10T00:56:36;15.80;59.50
15844;DHT22;50807;52.436;13.346;2023-05-10T00:57:08;15.80;59.60
15844;DHT22;50807;52.436;13.346;2023-05-10T00:57:39;15.80;59.50
15844;DHT22;50807;52.436;13.346;2023-05-10T00:58:10;15.80;59.60
15844;DHT22;50807;52.436;13.346;2023-05-10T00:58:43;15.80;59.70
15844;DHT22;50807;52.436;13.346;2023-05-10T00:59:14;15.80;59.70
15844;DHT22;50807;52.436;13.346;2023-05-10T00:59:46;15.80;59.70
15844;DHT22;50807;52.436;13.346;2023-05-10T01:00:19;15.80;59.70
15844;DHT22;50807;52.436;13.346;2023-05-10T01:00:50;15.80;59.70
15844;DHT22;50807;52.436;13.346;2023-05-10T01:01:22;15.70;59.80
15844;DHT22;50807;52.436;13.346;2023-05-10T01:01:54;15.80;59.80
15844;DHT22;50807;52.436;13.346;2023-05-10T01:02:25;15.80;59.80
15844;DHT22;50807;52.436;13.346;2023-05-10T01:02:56;15.80;59.90
15844;DHT22;50807;52.436;13.346;2023-05-10T01:03:28;15.80;59.90
15844;DHT22;50807;52.436;13.346;2023-05-10T01:04:00;15.80;60.00
15844;DHT22;50807;52.436;13.346;2023-05-10T01:04:32;15.80;60.00
15844;DHT22;50807;52.436;13.346;2023-05-10T01:05:04;15.80;60.00
15844;DHT22;50807;52.436;13.346;2023-05-10T01:05:37;15.80;60.10
15844;DHT22;50807;52.436;13.346;2023-05-10T01:06:08;15.70;60.00
15844;DHT22;50807;52.436;13.346;2023-05-10T01:06:40;15.70;59.90
15844;DHT22;50807;52.436;13.346;2023-05-10T01:07:13;15.70;60.00
15844;DHT22;50807;52.436;13.346;2023-05-10T01:07:45;15.70;60.10
15844;DHT22;50807;52.436;13.346;2023-05-10T01:08:16;15.70;60.20
15844;DHT22;50807;52.436;13.346;2023-05-10T01:08:47;15.70;60.20
15844;DHT22;50807;52.436;13.346;2023-05-10T01:09:19;15.70;60.10
15844;DHT22;50807;52.436;13.346;2023-05-10T01:09:51;15.70;60.20
15844;DHT22;50807;52.436;13.346;2023-05-10T01:10:22;15.70;60.20
15844;DHT22;50807;52.436;13.346;2023-05-10T01:10:53;15.70;60.20
15844;DHT22;50807;52.436;13.346;2023-05-10T01:11:25;15.70;60.20
15844;DHT22;50807;52.436;13.346;2023-05-10T01:11:56;15.70;60.30
15844;DHT22;50807;52.436;13.346;2023-05-10T01:12:27;15.70;60.20
15844;DHT22;50807;52.436;13.346;2023-05-10T01:13:00;15.70;60.30
15844;DHT22;50807;52.436;13.346;2023-05-10T01:13:33;15.70;60.40
15844;DHT22;50807;52.436;13.346;2023-05-10T01:14:06;15.70;60.50
15844;DHT22;50807;52.436;13.346;2023-05-10T01:14:39;15.70;60.50
15844;DHT22;50807;52.436;13.346;2023-05-10T01:15:11;15.70;60.50
15844;DHT22;50807;52.436;13.346;2023-05-10T01:15:43;15.70;60.50
15844;DHT22;50807;52.436;13.346;2023-05-10T01:16:15;15.70;60.50
15844;DHT22;50807;52.436;13.346;2023-05-10T01:16:48;15.70;60.50
15844;DHT22;50807;52.436;13.346;2023-05-10T01:17:20;15.70;60.50
15844;DHT22;50807;52.436;13.346;2023-05-10T01:17:53;15.70;60.50
15844;DHT22;50807;52.436;13.346;2023-05-10T01:18:24;15.70;60.50
15844;DHT22;50807;52.436;13.346;2023-05-10T01:18:57;15.70;60.50
15844;DHT22;50807;52.436;13.346;2023-05-10T01:19:30;15.70;60.50
15844;DHT22;50807;52.436;13.346;2023-05-10T01:20:06;15.70;60.50
15844;DHT22;50807;52.436;13.346;2023-05-10T01:20:41;15.70;60.50
15844;DHT22;50807;52.436;13.346;2023-05-10T01:21:23;15.70;60.60
15844;DHT22;50807;52.436;13.346;2023-05-10T01:22:05;15.70;60.60
15844;DHT22;50807;52.436;13.346;2023-05-10T01:23:28;15.70;60.60
15844;DHT22;50807;52.436;13.346;2023-05-10T01:24:28;15.70;60.50
15844;DHT22;50807;52.436;13.346;2023-05-10T01:25:34;15.70;60.40
15844;DHT22;50807;52.436;13.346;2023-05-10T01:29:18;15.80;59.90
15844;DHT22;50807;52.436;13.346;2023-05-10T01:30:50;15.80;59.90
15844;DHT22;50807;52.436;13.346;2023-05-10T01:32:49;15.80;59.70
15844;DHT22;50807;52.436;13.346;2023-05-10T01:33:30;15.70;59.60
15844;DHT22;50807;52.436;13.346;2023-05-10T01:34:07;15.70;59.60
15844;DHT22;50807;52.436;13.346;2023-05-10T01:35:00;15.70;59.70
15844;DHT22;50807;52.436;13.346;2023-05-10T01:35:39;15.70;59.80
15844;DHT22;50807;52.436;13.346;2023-05-10T01:36:18;15.70;59.90
15844;DHT22;50807;52.436;13.346;2023-05-10T01:38:55;15.60;60.10
15844;DHT22;50807;52.436;13.346;2023-05-10T01:39:36;15.60;59.80
15844;DHT22;50807;52.436;13.346;2023-05-10T01:40:19;15.60;59.90
15844;DHT22;50807;52.436;13.346;2023-05-10T01:41:01;15.60;60.00
15844;DHT22;50807;52.436;13.346;2023-05-10T01:41:47;15.60;60.10
15844;DHT22;50807;52.436;13.346;2023-05-10T01:42:25;15.60;60.30
15844;DHT22;50807;52.436;13.346;2023-05-10T01:43:01;15.50;60.40
15844;DHT22;50807;52.436;13.346;2023-05-10T01:43:45;15.50;60.30
15844;DHT22;50807;52.436;13.346;2023-05-10T01:44:31;15.50;60.50
15844;DHT22;50807;52.436;13.346;2023-05-10T01:45:13;15.50;60.50
15844;DHT22;50807;52.436;13.346;2023-05-10T01:45:55;15.50;60.70
15844;DHT22;50807;52.436;13.346;2023-05-10T01:46:36;15.50;60.80
15844;DHT22;50807;52.436;13.346;2023-05-10T01:47:12;15.40;60.70
15844;DHT22;50807;52.436;13.346;2023-05-10T01:47:49;15.40;60.90
15844;DHT22;50807;52.436;13.346;2023-05-10T01:48:26;15.40;60.90
15844;DHT22;50807;52.436;13.346;2023-05-10T01:49:00;15.40;61.00
15844;DHT22;50807;52.436;13.346;2023-05-10T01:49:39;15.40;61.20
15844;DHT22;50807;52.436;13.346;2023-05-10T01:50:17;15.40;61.20
15844;DHT22;50807;52.436;13.346;2023-05-10T01:50:51;15.30;61.30
15844;DHT22;50807;52.436;13.346;2023-05-10T01:51:24;15.30;61.30
15844;DHT22;50807;52.436;13.346;2023-05-10T01:52:04;15.30;61.40
15844;DHT22;50807;52.436;13.346;2023-05-10T01:52:41;15.30;62.30
15844;DHT22;50807;52.436;13.346;2023-05-10T01:53:18;15.30;61.60
15844;DHT22;50807;52.436;13.346;2023-05-10T01:53:59;15.30;61.70
15844;DHT22;50807;52.436;13.346;2023-05-10T01:54:33;15.30;61.70
15844;DHT22;50807;52.436;13.346;2023-05-10T01:55:09;15.30;61.70
15844;DHT22;50807;52.436;13.346;2023-05-10T01:55:47;15.30;61.80
15844;DHT22;50807;52.436;13.346;2023-05-10T01:56:22;15.30;61.80
15844;DHT22;50807;52.436;13.346;2023-05-10T01:57:00;15.30;61.90
15844;DHT22;50807;52.436;13.346;2023-05-10T01:57:35;15.30;62.00
15844;DHT22;50807;52.436;13.346;2023-05-10T01:58:13;15.30;62.00
15844;DHT22;50807;52.436;13.346;2023-05-10T01:58:47;15.30;62.10
15844;DHT22;50807;52.436;13.346;2023-05-10T01:59:21;15.20;62.10
15844;DHT22;50807;52.436;13.346;2023-05-10T01:59:55;15.30;62.20
15844;DHT22;50807;52.436;13.346;2023-05-10T02:00:29;15.20;62.20
15844;DHT22;50807;52.436;13.346;2023-05-10T02:01:03;15.20;62.90
15844;DHT22;50807;52.436;13.346;2023-05-10T02:01:36;15.20;62.40
15844;DHT22;50807;52.436;13.346;2023-05-10T02:02:12;15.20;62.40
15844;DHT22;50807;52.436;13.346;2023-05-10T02:02:46;15.20;62.50
15844;DHT22;50807;52.436;13.346;2023-05-10T02:03:21;15.20;62.50
15844;DHT22;50807;52.436;13.346;2023-05-10T02:03:55;15.20;62.60
15844;DHT22;50807;52.436;13.346;2023-05-10T02:04:28;15.20;62.60
15844;DHT22;50807;52.436;13.346;2023-05-10T02:05:00;15.20;62.60
15844;DHT22;50807;52.436;13.346;2023-05-10T02:05:34;15.20;62.70
15844;DHT22;50807;52.436;13.346;2023-05-10T02:06:09;15.20;62.80
15844;DHT22;50807;52.436;13.346;2023-05-10T02:06:43;15.20;62.80
15844;DHT22;50807;52.436;13.346;2023-05-10T02:07:17;15.10;62.80
15844;DHT22;50807;52.436;13.346;2023-05-10T02:07:51;15.10;62.90
15844;DHT22;50807;52.436;13.346;2023-05-10T02:08:24;15.10;62.90
15844;DHT22;50807;52.436;13.346;2023-05-10T02:08:55;15.10;63.10
15844;DHT22;50807;52.436;13.346;2023-05-10T02:09:30;15.10;63.10
15844;DHT22;50807;52.436;13.346;2023-05-10T02:10:06;15.10;63.20
15844;DHT22;50807;52.436;13.346;2023-05-10T02:10:39;15.10;63.10
15844;DHT22;50807;52.436;13.346;2023-05-10T02:11:13;15.10;63.20
15844;DHT22;50807;52.436;13.346;2023-05-10T02:11:44;15.10;63.30
15844;DHT22;50807;52.436;13.346;2023-05-10T02:12:18;15.10;63.30
15844;DHT22;50807;52.436;13.346;2023-05-10T02:12:51;15.10;63.40
15844;DHT22;50807;52.436;13.346;2023-05-10T02:13:25;15.10;63.40
15844;DHT22;50807;52.436;13.346;2023-05-10T02:13:58;15.10;63.50
15844;DHT22;50807;52.436;13.346;2023-05-10T02:14:32;15.10;63.50
15844;DHT22;50807;52.436;13.346;2023-05-10T02:15:08;15.10;63.60
15844;DHT22;50807;52.436;13.346;2023-05-10T02:15:41;15.10;63.50
15844;DHT22;50807;52.436;13.346;2023-05-10T02:16:14;15.10;63.60
15844;DHT22;50807;52.436;13.346;2023-05-10T02:16:50;15.10;63.60
15844;DHT22;50807;52.436;13.346;2023-05-10T02:17:25;15.10;63.70
15844;DHT22;50807;52.436;13.346;2023-05-10T02:17:58;15.10;63.70
15844;DHT22;50807;52.436;13.346;2023-05-10T02:18:32;15.10;63.70
15844;DHT22;50807;52.436;13.346;2023-05-10T02:19:05;15.10;63.70
15844;DHT22;50807;52.436;13.346;2023-05-10T02:19:41;15.00;63.70
15844;DHT22;50807;52.436;13.346;2023-05-10T02:20:16;15.00;63.80
15844;DHT22;50807;52.436;13.346;2023-05-10T02:20:50;15.00;63.80
15844;DHT22;50807;52.436;13.346;2023-05-10T02:21:23;15.00;63.90
15844;DHT22;50807;52.436;13.346;2023-05-10T02:21:56;15.00;63.90
15844;DHT22;50807;52.436;13.346;2023-05-10T02:22:29;15.00;64.00
15844;DHT22;50807;52.436;13.346;2023-05-10T02:23:02;15.00;63.90
15844;DHT22;50807;52.436;13.346;2023-05-10T02:23:36;15.00;64.00
15844;DHT22;50807;52.436;13.346;2023-05-10T02:24:08;15.00;64.10
15844;DHT22;50807;52.436;13.346;2023-05-10T02:24:41;15.00;64.00
15844;DHT22;50807;52.436;13.346;2023-05-10T02:25:17;15.00;64.10
15844;DHT22;50807;52.436;13.346;2023-05-10T02:25:50;15.00;64.20
15844;DHT22;50807;52.436;13.346;2023-05-10T02:26:24;15.00;64.20
15844;DHT22;50807;52.436;13.346;2023-05-10T02:26:57;15.00;64.30
15844;DHT22;50807;52.436;13.346;2023-05-10T02:27:30;15.00;64.30
15844;DHT22;50807;52.436;13.346;2023-05-10T02:28:03;15.00;64.30
15844;DHT22;50807;52.436;13.346;2023-05-10T02:28:36;14.90;64.40
15844;DHT22;50807;52.436;13.346;2023-05-10T02:29:09;14.90;64.40
15844;DHT22;50807;52.436;13.346;2023-05-10T02:29:43;14.90;64.40
15844;DHT22;50807;52.436;13.346;2023-05-10T02:30:16;14.90;64.50
15844;DHT22;50807;52.436;13.346;2023-05-10T02:30:49;14.90;64.50
15844;DHT22;50807;52.436;13.346;2023-05-10T02:31:22;14.90;64.60
15844;DHT22;50807;52.436;13.346;2023-05-10T02:31:54;14.90;64.60
15844;DHT22;50807;52.436;13.346;2023-05-10T02:32:29;14.90;64.70
15844;DHT22;50807;52.436;13.346;2023-05-10T02:33:00;14.90;64.80
15844;DHT22;50807;52.436;13.346;2023-05-10T02:33:34;14.90;64.70
15844;DHT22;50807;52.436;13.346;2023-05-10T02:34:07;14.90;64.80
15844;DHT22;50807;52.436;13.346;2023-05-10T02:34:40;14.90;64.90
15844;DHT22;50807;52.436;13.346;2023-05-10T02:35:13;14.90;64.90
15844;DHT22;50807;52.436;13.346;2023-05-10T02:35:45;14.90;65.00
15844;DHT22;50807;52.436;13.346;2023-05-10T02:36:17;14.90;65.00
15844;DHT22;50807;52.436;13.346;2023-05-10T02:36:52;14.80;65.00
15844;DHT22;50807;52.436;13.346;2023-05-10T02:37:24;14.90;64.60
15844;DHT22;50807;52.436;13.346;2023-05-10T02:37:56;14.80;65.00
15844;DHT22;50807;52.436;13.346;2023-05-10T02:38:30;14.90;65.20
15844;DHT22;50807;52.436;13.346;2023-05-10T02:39:04;14.80;65.20
15844;DHT22;50807;52.436;13.346;2023-05-10T02:39:40;14.80;65.20
15844;DHT22;50807;52.436;13.346;2023-05-10T02:40:15;14.80;65.20
15844;DHT22;50807;52.436;13.346;2023-05-10T02:40:47;14.80;65.30
15844;DHT22;50807;52.436;13.346;2023-05-10T02:41:20;14.80;65.20
15844;DHT22;50807;52.436;13.346;2023-05-10T02:41:53;14.80;65.30
15844;DHT22;50807;52.436;13.346;2023-05-10T02:42:27;14.80;65.40
15844;DHT22;50807;52.436;13.346;2023-05-10T02:43:01;14.80;65.40
15844;DHT22;50807;52.436;13.346;2023-05-10T02:43:33;14.70;65.30
15844;DHT22;50807;52.436;13.346;2023-05-10T02:44:07;14.70;65.40
15844;DHT22;50807;52.436;13.346;2023-05-10T02:44:41;14.80;65.60
15844;DHT22;50807;52.436;13.346;2023-05-10T02:45:17;14.80;65.60
15844;DHT22;50807;52.436;13.346;2023-05-10T02:45:52;14.70;65.60
15844;DHT22;50807;52.436;13.346;2023-05-10T02:46:23;14.70;65.60
15844;DHT22;50807;52.436;13.346;2023-05-10T02:46:54;14.70;65.60
15844;DHT22;50807;52.436;13.346;2023-05-10T02:47:28;14.70;65.70
15844;DHT22;50807;52.436;13.346;2023-05-10T02:48:00;14.70;65.80
15844;DHT22;50807;52.436;13.346;2023-05-10T02:48:31;14.70;65.70
15844;DHT22;50807;52.436;13.346;2023-05-10T02:49:03;14.70;65.80
15844;DHT22;50807;52.436;13.346;2023-05-10T02:49:34;14.70;65.80
15844;DHT22;50807;52.436;13.346;2023-05-10T02:50:06;14.70;65.90
15844;DHT22;50807;52.436;13.346;2023-05-10T02:50:40;14.70;66.00
15844;DHT22;50807;52.436;13.346;2023-05-10T02:51:16;14.70;66.00
15844;DHT22;50807;52.436;13.346;2023-05-10T02:51:53;14.70;66.10
15844;DHT22;50807;52.436;13.346;2023-05-10T02:52:36;14.70;66.20
15844;DHT22;50807;52.436;13.346;2023-05-10T02:53:13;14.70;66.20
15844;DHT22;50807;52.436;13.346;2023-05-10T02:53:47;14.70;66.20
15844;DHT22;50807;52.436;13.346;2023-05-10T02:54:28;14.70;66.20
15844;DHT22;50807;52.436;13.346;2023-05-10T02:55:03;14.70;66.30
15844;DHT22;50807;52.436;13.346;2023-05-10T02:55:38;14.70;66.20
15844;DHT22;50807;52.436;13.346;2023-05-10T02:56:15;14.70;66.20
15844;DHT22;50807;52.436;13.346;2023-05-10T02:56:56;14.60;66.30
15844;DHT22;50807;52.436;13.346;2023-05-10T02:57:33;14.60;66.20
15844;DHT22;50807;52.436;13.346;2023-05-10T02:58:06;14.60;66.30
15844;DHT22;50807;52.436;13.346;2023-05-10T02:58:36;14.60;66.20
15844;DHT22;50807;52.436;13.346;2023-05-10T02:59:07;14.60;66.30
15844;DHT22;50807;52.436;13.346;2023-05-10T02:59:38;14.60;66.30
15844;DHT22;50807;52.436;13.346;2023-05-10T03:00:11;14.60;66.40
15844;DHT22;50807;52.436;13.346;2023-05-10T03:00:42;14.60;66.50
15844;DHT22;50807;52.436;13.346;2023-05-10T03:01:13;14.60;66.60
15844;DHT22;50807;52.436;13.346;2023-05-10T03:01:44;14.60;66.70
15844;DHT22;50807;52.436;13.346;2023-05-10T03:02:15;14.60;66.70
15844;DHT22;50807;52.436;13.346;2023-05-10T03:02:47;14.60;66.80
15844;DHT22;50807;52.436;13.346;2023-05-10T03:03:19;14.60;66.80
15844;DHT22;50807;52.436;13.346;2023-05-10T03:03:51;14.60;66.90
15844;DHT22;50807;52.436;13.346;2023-05-10T03:04:22;14.60;67.60
15844;DHT22;50807;52.436;13.346;2023-05-10T03:04:53;14.50;66.80
15844;DHT22;50807;52.436;13.346;2023-05-10T03:05:23;14.50;66.90
15844;DHT22;50807;52.436;13.346;2023-05-10T03:05:56;14.50;67.00
15844;DHT22;50807;52.436;13.346;2023-05-10T03:06:28;14.50;67.00
15844;DHT22;50807;52.436;13.346;2023-05-10T03:06:59;14.50;67.00
15844;DHT22;50807;52.436;13.346;2023-05-10T03:07:30;14.50;67.10
15844;DHT22;50807;52.436;13.346;2023-05-10T03:08:02;14.50;67.00
15844;DHT22;50807;52.436;13.346;2023-05-10T03:08:34;14.50;67.10
15844;DHT22;50807;52.436;13.346;2023-05-10T03:09:05;14.50;67.20
15844;DHT22;50807;52.436;13.346;2023-05-10T03:09:39;14.50;67.30
15844;DHT22;50807;52.436;13.346;2023-05-10T03:10:11;14.50;67.30
15844;DHT22;50807;52.436;13.346;2023-05-10T03:11:52;14.50;67.60
15844;DHT22;50807;52.436;13.346;2023-05-10T03:12:31;14.50;67.40
15844;DHT22;50807;52.436;13.346;2023-05-10T03:13:16;14.50;67.30
15844;DHT22;50807;52.436;13.346;2023-05-10T03:14:08;14.50;67.30
15844;DHT22;50807;52.436;13.346;2023-05-10T03:14:52;14.50;67.30
15844;DHT22;50807;52.436;13.346;2023-05-10T03:15:35;14.50;67.20
15844;DHT22;50807;52.436;13.346;2023-05-10T03:16:15;14.50;67.20
15844;DHT22;50807;52.436;13.346;2023-05-10T03:16:56;14.50;67.10
15844;DHT22;50807;52.436;13.346;2023-05-10T03:17:39;14.50;67.10
15844;DHT22;50807;52.436;13.346;2023-05-10T03:18:22;14.50;67.20
15844;DHT22;50807;52.436;13.346;2023-05-10T03:19:06;14.50;67.20
15844;DHT22;50807;52.436;13.346;2023-05-10T03:19:47;14.50;67.20
15844;DHT22;50807;52.436;13.346;2023-05-10T03:20:26;14.50;67.20
15844;DHT22;50807;52.436;13.346;2023-05-10T03:21:03;14.50;67.20
15844;DHT22;50807;52.436;13.346;2023-05-10T03:21:40;14.40;67.10
15844;DHT22;50807;52.436;13.346;2023-05-10T03:22:16;14.40;67.30
15844;DHT22;50807;52.436;13.346;2023-05-10T03:22:55;14.40;67.30
15844;DHT22;50807;52.436;13.346;2023-05-10T03:23:34;14.40;67.40
15844;DHT22;50807;52.436;13.346;2023-05-10T03:24:10;14.40;67.50
15844;DHT22;50807;52.436;13.346;2023-05-10T03:24:45;14.40;67.50
15844;DHT22;50807;52.436;13.346;2023-05-10T03:25:19;14.40;67.50
15844;DHT22;50807;52.436;13.346;2023-05-10T03:25:52;14.30;67.50
15844;DHT22;50807;52.436;13.346;2023-05-10T03:26:25;14.40;67.70
15844;DHT22;50807;52.436;13.346;2023-05-10T03:26:59;14.30;67.70
15844;DHT22;50807;52.436;13.346;2023-05-10T03:27:34;14.30;67.80
15844;DHT22;50807;52.436;13.346;2023-05-10T03:28:08;14.40;67.90
15844;DHT22;50807;52.436;13.346;2023-05-10T03:28:39;14.30;67.90
15844;DHT22;50807;52.436;13.346;2023-05-10T03:29:13;14.30;68.00
15844;DHT22;50807;52.436;13.346;2023-05-10T03:29:46;14.30;68.10
15844;DHT22;50807;52.436;13.346;2023-05-10T03:30:17;14.30;68.00
15844;DHT22;50807;52.436;13.346;2023-05-10T03:30:50;14.30;68.10
15844;DHT22;50807;52.436;13.346;2023-05-10T03:31:24;14.30;68.20
15844;DHT22;50807;52.436;13.346;2023-05-10T03:31:55;14.30;68.20
15844;DHT22;50807;52.436;13.346;2023-05-10T03:32:26;14.30;68.30
15844;DHT22;50807;52.436;13.346;2023-05-10T03:32:58;14.30;68.40
15844;DHT22;50807;52.436;13.346;2023-05-10T03:33:45;14.30;68.40
15844;DHT22;50807;52.436;13.346;2023-05-10T03:34:23;14.30;68.60
15844;DHT22;50807;52.436;13.346;2023-05-10T03:34:54;14.30;68.50
15844;DHT22;50807;52.436;13.346;2023-05-10T03:35:25;14.30;68.50
15844;DHT22;50807;52.436;13.346;2023-05-10T03:35:57;14.30;68.50
15844;DHT22;50807;52.436;13.346;2023-05-10T03:36:28;14.30;68.50
15844;DHT22;50807;52.436;13.346;2023-05-10T03:36:59;14.30;68.60
15844;DHT22;50807;52.436;13.346;2023-05-10T03:37:30;14.30;68.60
15844;DHT22;50807;52.436;13.346;2023-05-10T03:38:01;14.30;68.60
15844;DHT22;50807;52.436;13.346;2023-05-10T03:38:33;14.20;68.60
15844;DHT22;50807;52.436;13.346;2023-05-10T03:39:04;14.20;68.70